Time,TemperatureF,DewpointF,PressureIn,WindDirection,WindDirectionDegrees,WindSpeedMPH,WindSpeedGustMPH,Humidity,HourlyPrecipIn,Conditions,Clouds,dailyrainin,SoftwareType,DateUTC
2013-05-19 00:00:00,75.8,68.5,30.15,SSW,202,4.0,11.0,78,0.00,,---,0.00,VWS V14.01,2013-05-19 05:00:00,
2013-05-19 00:10:00,75.6,68.6,30.15,SSW,202,5.0,12.0,79,0.00,,---,0.00,VWS V14.01,2013-05-19 05:10:00,
2013-05-19 00:20:00,75.6,68.6,30.15,South,180,5.0,11.0,79,0.00,,---,0.00,VWS V14.01,2013-05-19 05:20:00,
2013-05-19 00:30:00,75.4,68.4,30.14,South,180,6.0,13.0,79,0.00,,---,0.00,VWS V14.01,2013-05-19 05:30:00,
2013-05-19 00:40:00,75.4,68.8,30.14,South,180,5.0,14.0,80,0.00,,---,0.00,VWS V14.01,2013-05-19 05:40:00,
2013-05-19 00:50:00,75.3,68.7,30.14,SW,225,4.0,12.0,80,0.00,,---,0.00,VWS V14.01,2013-05-19 05:50:00,
2013-05-19 01:00:00,75.3,68.7,30.14,SSW,202,5.0,11.0,80,0.00,,---,0.00,VWS V14.01,2013-05-19 06:00:00,
2013-05-19 01:10:00,75.3,68.7,30.14,SW,225,4.0,9.0,80,0.00,,---,0.00,VWS V14.01,2013-05-19 06:10:00,
2013-05-19 01:20:00,75.3,69.1,30.14,SSW,202,4.0,12.0,81,0.00,,---,0.00,VWS V14.01,2013-05-19 06:20:00,
2013-05-19 01:30:00,75.1,68.5,30.14,SW,225,1.0,6.0,80,0.00,,---,0.00,VWS V14.01,2013-05-19 06:30:00,
2013-05-19 01:40:00,75.1,68.9,30.14,SW,225,4.0,10.0,81,0.00,,---,0.00,VWS V14.01,2013-05-19 06:40:00,
2013-05-19 01:50:00,75.1,68.9,30.15,SW,225,2.0,6.0,81,0.00,,---,0.00,VWS V14.01,2013-05-19 06:50:00,
2013-05-19 02:00:00,75.1,68.9,30.15,WSW,248,3.0,7.0,81,0.00,,---,0.00,VWS V14.01,2013-05-19 07:00:00,
2013-05-19 02:10:00,75.1,68.9,30.15,WSW,248,2.0,6.0,81,0.00,,---,0.00,VWS V14.01,2013-05-19 07:10:00,
2013-05-19 02:20:00,75.1,68.9,30.16,WSW,248,4.0,7.0,81,0.00,,---,0.00,VWS V14.01,2013-05-19 07:20:00,
2013-05-19 02:30:00,75.1,68.9,30.16,WSW,248,4.0,11.0,81,0.00,,---,0.00,VWS V14.01,2013-05-19 07:30:00,
2013-05-19 02:40:00,75.1,68.9,30.16,WSW,248,4.0,8.0,81,0.00,,---,0.00,VWS V14.01,2013-05-19 07:40:00,
2013-05-19 02:50:00,75.1,69.2,30.15,SW,225,5.0,10.0,82,0.00,,---,0.00,VWS V14.01,2013-05-19 07:50:00,
2013-05-19 03:00:00,75.1,69.2,30.13,SW,225,5.0,12.0,82,0.00,,---,0.00,VWS V14.01,2013-05-19 08:00:00,
2013-05-19 03:10:00,75.1,68.9,30.13,SW,225,4.0,11.0,81,0.00,,---,0.00,VWS V14.01,2013-05-19 08:10:00,
2013-05-19 03:20:00,75.1,68.9,30.11,South,180,2.0,5.0,81,0.00,,---,0.00,VWS V14.01,2013-05-19 08:20:00,
2013-05-19 03:30:00,74.9,68.7,30.11,South,180,1.0,5.0,81,0.00,,---,0.00,VWS V14.01,2013-05-19 08:30:00,
2013-05-19 03:40:00,74.7,68.5,30.11,SSW,202,1.0,5.0,81,0.00,,---,0.00,VWS V14.01,2013-05-19 08:40:00,
2013-05-19 03:50:00,74.6,68.8,30.10,SSW,202,1.0,5.0,82,0.00,,---,0.00,VWS V14.01,2013-05-19 08:50:00,
2013-05-19 04:00:00,74.4,68.6,30.11,WSW,248,1.0,5.0,82,0.00,,---,0.00,VWS V14.01,2013-05-19 09:00:00,
2013-05-19 04:10:00,74.2,68.4,30.11,SSW,202,2.0,9.0,82,0.00,,---,0.00,VWS V14.01,2013-05-19 09:10:00,
2013-05-19 04:20:00,74.0,68.5,30.11,SSW,202,4.0,9.0,83,0.00,,---,0.00,VWS V14.01,2013-05-19 09:20:00,
2013-05-19 04:30:00,73.9,68.4,30.10,South,180,4.0,10.0,83,0.00,,---,0.00,VWS V14.01,2013-05-19 09:30:00,
2013-05-19 04:40:00,74.7,68.5,30.11,SSW,202,1.0,5.0,81,0.00,,---,0.00,VWS V14.01,2013-05-19 09:40:00,
2013-05-19 04:50:00,73.7,68.6,30.10,South,188,3.0,9.0,84,0.00,,---,0.00,VWS V14.01,2013-05-19 09:50:00,
2013-05-19 04:53:00,73.7,68.6,30.10,SW,222,6.0,13.0,84,0.00,,---,0.00,VWS V14.01,2013-05-19 09:53:00,
2013-05-19 04:54:00,73.7,68.6,30.10,SW,217,4.0,13.0,84,0.00,,---,0.00,VWS V14.01,2013-05-19 09:54:00,
2013-05-19 04:59:00,73.7,68.6,30.10,SSW,211,3.0,13.0,84,0.00,,---,0.00,VWS V14.01,2013-05-19 09:59:00,
2013-05-19 05:00:00,73.7,68.6,30.10,SSW,213,5.0,13.0,84,0.00,,---,0.00,VWS V14.01,2013-05-19 10:00:00,
2013-05-19 05:04:00,73.7,68.6,30.10,SW,215,4.0,6.0,84,0.00,,---,0.00,VWS V14.01,2013-05-19 10:04:00,
2013-05-19 05:09:00,73.7,68.6,30.10,SSW,208,9.0,9.0,84,0.00,,---,0.00,VWS V14.01,2013-05-19 10:09:00,
2013-05-19 05:10:00,73.7,68.6,30.10,SW,218,4.0,9.0,84,0.00,,---,0.00,VWS V14.01,2013-05-19 10:10:00,
2013-05-19 05:14:00,73.5,68.4,30.10,SSW,202,7.0,10.0,84,0.00,,---,0.00,VWS V14.01,2013-05-19 10:14:00,
2013-05-19 05:19:00,73.5,69.4,30.10,SSW,208,3.0,11.0,87,0.00,,---,0.00,VWS V14.01,2013-05-19 10:19:00,
2013-05-19 05:20:00,73.5,68.4,30.10,South,180,6.0,11.0,84,0.00,,---,0.00,VWS V14.01,2013-05-19 10:20:00,
2013-05-19 05:24:00,73.5,68.4,30.10,SSE,162,6.0,7.0,84,0.00,,---,0.00,VWS V14.01,2013-05-19 10:24:00,
2013-05-19 05:29:00,73.5,68.4,30.10,South,184,4.0,8.0,84,0.00,,---,0.00,VWS V14.01,2013-05-19 10:29:00,
2013-05-19 05:30:00,73.5,68.4,30.10,South,185,3.0,8.0,84,0.00,,---,0.00,VWS V14.01,2013-05-19 10:30:00,
2013-05-19 05:34:00,73.3,68.2,30.10,SSW,210,7.0,7.0,84,0.00,,---,0.00,VWS V14.01,2013-05-19 10:34:00,
2013-05-19 05:39:00,73.3,68.2,30.10,South,185,6.0,14.0,84,0.00,,---,0.00,VWS V14.01,2013-05-19 10:39:00,
2013-05-19 05:40:00,73.3,68.2,30.10,South,173,6.0,14.0,84,0.00,,---,0.00,VWS V14.01,2013-05-19 10:40:00,
2013-05-19 05:44:00,73.3,68.2,30.10,SSW,199,4.0,10.0,84,0.00,,---,0.00,VWS V14.01,2013-05-19 10:44:00,
2013-05-19 05:49:00,73.3,68.2,30.11,South,186,3.0,10.0,84,0.00,,---,0.00,VWS V14.01,2013-05-19 10:49:00,
2013-05-19 05:50:00,73.3,68.2,30.11,SW,219,5.0,10.0,84,0.00,,---,0.00,VWS V14.01,2013-05-19 10:50:00,
2013-05-19 05:54:00,73.3,68.2,30.11,SSW,192,7.0,10.0,84,0.00,,---,0.00,VWS V14.01,2013-05-19 10:54:00,
2013-05-19 05:59:00,73.3,68.2,30.11,SSW,193,9.0,11.0,84,0.00,,---,0.00,VWS V14.01,2013-05-19 10:59:00,
2013-05-19 06:00:00,73.3,68.2,30.11,South,184,10.0,11.0,84,0.00,,---,0.00,VWS V14.01,2013-05-19 11:00:00,
2013-05-19 06:04:00,73.3,67.8,30.11,South,190,6.0,12.0,83,0.00,,---,0.00,VWS V14.01,2013-05-19 11:04:00,
2013-05-19 06:09:00,73.3,67.8,30.11,SW,215,9.0,12.0,83,0.00,,---,0.00,VWS V14.01,2013-05-19 11:09:00,
2013-05-19 06:10:00,73.3,67.8,30.11,South,188,4.0,12.0,83,0.00,,---,0.00,VWS V14.01,2013-05-19 11:10:00,
2013-05-19 06:14:00,73.3,67.8,30.11,SSW,202,6.0,10.0,83,0.00,,---,0.00,VWS V14.01,2013-05-19 11:14:00,
2013-05-19 06:19:00,73.3,67.8,30.11,SSW,201,5.0,11.0,83,0.00,,---,0.00,VWS V14.01,2013-05-19 11:19:00,
2013-05-19 06:20:00,73.3,67.8,30.11,SSW,198,5.0,11.0,83,0.00,,---,0.00,VWS V14.01,2013-05-19 11:20:00,
2013-05-19 06:24:00,73.3,67.8,30.11,SSW,201,4.0,9.0,83,0.00,,---,0.00,VWS V14.01,2013-05-19 11:24:00,
2013-05-19 06:29:00,73.3,67.5,30.11,SSW,204,5.0,9.0,82,0.00,,---,0.00,VWS V14.01,2013-05-19 11:29:00,
2013-05-19 06:30:00,73.3,67.5,30.12,SW,218,5.0,9.0,82,0.00,,---,0.00,VWS V14.01,2013-05-19 11:30:00,
2013-05-19 06:34:00,73.3,67.5,30.12,SSE,166,5.0,11.0,82,0.00,,---,0.00,VWS V14.01,2013-05-19 11:34:00,
2013-05-19 06:39:00,73.3,67.1,30.12,SW,214,3.0,11.0,81,0.00,,---,0.00,VWS V14.01,2013-05-19 11:39:00,
2013-05-19 06:40:00,73.3,67.1,30.12,SSW,205,6.0,11.0,81,0.00,,---,0.00,VWS V14.01,2013-05-19 11:40:00,
2013-05-19 06:43:00,73.3,67.1,30.12,SW,221,4.0,12.0,81,0.00,,---,0.00,VWS V14.01,2013-05-19 11:43:00,
2013-05-19 06:48:00,73.5,67.0,30.12,South,190,6.0,12.0,80,0.00,,---,0.00,VWS V14.01,2013-05-19 11:48:00,
2013-05-19 06:50:00,73.5,67.0,30.12,SSW,209,3.0,12.0,80,0.00,,---,0.00,VWS V14.01,2013-05-19 11:50:00,
2013-05-19 06:53:00,73.5,66.6,30.12,SSW,208,16.0,19.0,79,0.00,,---,0.00,VWS V14.01,2013-05-19 11:53:00,
2013-05-19 06:58:00,73.7,66.1,30.12,SW,228,7.0,19.0,77,0.00,,---,0.00,VWS V14.01,2013-05-19 11:58:00,
2013-05-19 07:00:00,73.7,65.7,30.12,SW,235,17.0,19.0,76,0.00,,---,0.00,VWS V14.01,2013-05-19 12:00:00,
2013-05-19 07:03:00,73.9,65.9,30.12,SW,222,7.0,17.0,76,0.00,,---,0.00,VWS V14.01,2013-05-19 12:03:00,
2013-05-19 07:08:00,73.9,65.5,30.12,SSW,198,12.0,17.0,75,0.00,,---,0.00,VWS V14.01,2013-05-19 12:08:00,
2013-05-19 07:10:00,73.9,65.5,30.12,SW,215,7.0,17.0,75,0.00,,---,0.00,VWS V14.01,2013-05-19 12:10:00,
2013-05-19 07:13:00,74.0,65.6,30.12,WSW,247,8.0,14.0,75,0.00,,---,0.00,VWS V14.01,2013-05-19 12:13:00,
2013-05-19 07:18:00,74.0,65.6,30.13,South,180,11.0,19.0,75,0.00,,---,0.00,VWS V14.01,2013-05-19 12:18:00,
2013-05-19 07:20:00,74.0,65.6,30.13,SSW,213,4.0,19.0,75,0.00,,---,0.00,VWS V14.01,2013-05-19 12:20:00,
2013-05-19 07:23:00,74.0,65.6,30.13,SSW,210,5.0,13.0,75,0.00,,---,0.00,VWS V14.01,2013-05-19 12:23:00,
2013-05-19 07:28:00,73.9,65.1,30.13,SSW,200,17.0,19.0,74,0.00,,---,0.00,VWS V14.01,2013-05-19 12:28:00,
2013-05-19 07:30:00,73.9,65.1,30.14,SW,230,6.0,19.0,74,0.00,,---,0.00,VWS V14.01,2013-05-19 12:30:00,
2013-05-19 07:33:00,74.0,65.2,30.14,SW,217,3.0,12.0,74,0.00,,---,0.00,VWS V14.01,2013-05-19 12:33:00,
2013-05-19 07:38:00,74.0,64.8,30.14,SSW,202,10.0,13.0,73,0.00,,---,0.00,VWS V14.01,2013-05-19 12:38:00,
2013-05-19 07:40:00,74.0,64.8,30.14,SSW,198,3.0,13.0,73,0.00,,---,0.00,VWS V14.01,2013-05-19 12:40:00,
2013-05-19 07:43:00,74.0,64.4,30.14,WSW,244,5.0,12.0,72,0.00,,---,0.00,VWS V14.01,2013-05-19 12:43:00,
2013-05-19 07:48:00,74.2,64.6,30.14,SW,227,6.0,16.0,72,0.00,,---,0.00,VWS V14.01,2013-05-19 12:48:00,
2013-05-19 07:50:00,74.2,64.6,30.14,SSW,211,6.0,16.0,72,0.00,,---,0.00,VWS V14.01,2013-05-19 12:50:00,
2013-05-19 07:53:00,74.4,64.8,30.14,SW,231,5.0,12.0,72,0.00,,---,0.00,VWS V14.01,2013-05-19 12:53:00,
2013-05-19 07:58:00,74.6,65.0,30.14,SW,228,9.0,13.0,72,0.00,,---,0.00,VWS V14.01,2013-05-19 12:58:00,
2013-05-19 08:00:00,74.7,64.7,30.14,SW,217,7.0,13.0,71,0.00,,---,0.00,VWS V14.01,2013-05-19 13:00:00,
2013-05-19 08:03:00,74.7,64.7,30.14,WSW,240,6.0,12.0,71,0.00,,---,0.00,VWS V14.01,2013-05-19 13:03:00,
2013-05-19 08:08:00,75.1,64.7,30.14,WSW,252,6.0,15.0,70,0.00,,---,0.00,VWS V14.01,2013-05-19 13:08:00,
2013-05-19 08:10:00,75.1,64.7,30.14,SSW,208,7.0,15.0,70,0.00,,---,0.00,VWS V14.01,2013-05-19 13:10:00,
2013-05-19 08:13:00,75.3,64.8,30.14,SSW,209,10.0,16.0,70,0.00,,---,0.00,VWS V14.01,2013-05-19 13:13:00,
2013-05-19 08:20:00,75.4,64.5,30.15,SW,225,8.0,17.0,69,0.00,,---,0.00,VWS V14.01,2013-05-19 13:20:00,
2013-05-19 08:30:00,75.6,64.3,30.15,SSW,202,9.0,16.0,68,0.00,,---,0.00,VWS V14.01,2013-05-19 13:30:00,
2013-05-19 08:40:00,76.0,64.3,30.15,SSW,202,8.0,16.0,67,0.00,,---,0.00,VWS V14.01,2013-05-19 13:40:00,
2013-05-19 08:50:00,76.7,64.1,30.14,SSW,202,7.0,20.0,65,0.00,,---,0.00,VWS V14.01,2013-05-19 13:50:00,
2013-05-19 09:00:00,77.2,64.1,30.14,SSW,202,9.0,18.0,64,0.00,,---,0.00,VWS V14.01,2013-05-19 14:00:00,
2013-05-19 09:10:00,77.9,64.3,30.14,SSW,202,9.0,15.0,63,0.00,,---,0.00,VWS V14.01,2013-05-19 14:10:00,
2013-05-19 09:20:00,78.5,63.0,30.13,South,180,9.0,21.0,59,0.00,,---,0.00,VWS V14.01,2013-05-19 14:20:00,
2013-05-19 09:30:00,78.8,62.3,30.12,SSW,202,10.0,24.0,57,0.00,,---,0.00,VWS V14.01,2013-05-19 14:30:00,
2013-05-19 09:40:00,79.4,61.8,30.12,SSW,202,10.0,21.0,55,0.00,,---,0.00,VWS V14.01,2013-05-19 14:40:00,
2013-05-19 09:50:00,79.8,61.7,30.11,South,180,10.0,20.0,54,0.00,,---,0.00,VWS V14.01,2013-05-19 14:50:00,
2013-05-19 10:00:00,80.5,60.2,30.11,SSW,202,9.0,20.0,50,0.00,,---,0.00,VWS V14.01,2013-05-19 15:00:00,
2013-05-19 10:10:00,81.1,60.2,30.11,SSW,202,10.0,21.0,49,0.00,,---,0.00,VWS V14.01,2013-05-19 15:10:00,
2013-05-19 10:20:00,81.6,60.0,30.10,SSW,202,11.0,22.0,48,0.00,,---,0.00,VWS V14.01,2013-05-19 15:20:00,
2013-05-19 10:30:00,82.2,59.4,30.10,SSW,202,10.0,24.0,46,0.00,,---,0.00,VWS V14.01,2013-05-19 15:30:00,
2013-05-19 10:40:00,82.6,58.5,30.10,SSW,202,11.0,21.0,44,0.00,,---,0.00,VWS V14.01,2013-05-19 15:40:00,
2013-05-19 10:50:00,82.8,58.7,30.09,SSW,202,11.0,23.0,44,0.00,,---,0.00,VWS V14.01,2013-05-19 15:50:00,
2013-05-19 11:00:00,83.4,58.6,30.09,SSW,202,9.0,18.0,43,0.00,,---,0.00,VWS V14.01,2013-05-19 16:00:00,
2013-05-19 11:10:00,83.4,58.6,30.09,SW,225,10.0,18.0,43,0.00,,---,0.00,VWS V14.01,2013-05-19 16:10:00,
2013-05-19 11:20:00,83.6,59.4,30.09,SW,225,11.0,22.0,44,0.00,,---,0.00,VWS V14.01,2013-05-19 16:20:00,
2013-05-19 11:30:00,84.1,58.5,30.09,SW,225,12.0,22.0,42,0.00,,---,0.00,VWS V14.01,2013-05-19 16:30:00,
2013-05-19 11:40:00,84.0,59.1,30.09,SW,225,11.0,29.0,43,0.00,,---,0.00,VWS V14.01,2013-05-19 16:40:00,
2013-05-19 11:50:00,84.3,59.4,30.08,SW,225,12.0,29.0,43,0.00,,---,0.00,VWS V14.01,2013-05-19 16:50:00,
2013-05-19 12:00:00,84.5,60.2,30.08,SSW,202,12.0,23.0,44,0.00,,---,0.00,VWS V14.01,2013-05-19 17:00:00,
2013-05-19 12:10:00,84.9,59.3,30.08,SW,225,12.0,24.0,42,0.00,,---,0.00,VWS V14.01,2013-05-19 17:10:00,
2013-05-19 12:20:00,85.1,58.8,30.08,SSW,202,10.0,21.0,41,0.00,,---,0.00,VWS V14.01,2013-05-19 17:20:00,
2013-05-19 12:30:00,85.3,60.3,30.07,SSW,202,10.0,21.0,43,0.00,,---,0.00,VWS V14.01,2013-05-19 17:30:00,
2013-05-19 12:40:00,86.1,61.0,30.07,SW,225,8.0,16.0,43,0.00,,---,0.00,VWS V14.01,2013-05-19 17:40:00,
2013-05-19 12:50:00,85.7,60.7,30.07,SSW,202,11.0,24.0,43,0.00,,---,0.00,VWS V14.01,2013-05-19 17:50:00,
2013-05-19 13:00:00,85.7,60.7,30.07,SW,225,12.0,22.0,43,0.00,,---,0.00,VWS V14.01,2013-05-19 18:00:00,
2013-05-19 13:10:00,86.1,60.3,30.07,SSW,202,9.0,22.0,42,0.00,,---,0.00,VWS V14.01,2013-05-19 18:10:00,
2013-05-19 13:20:00,86.1,60.3,30.07,SW,225,13.0,20.0,42,0.00,,---,0.00,VWS V14.01,2013-05-19 18:20:00,
2013-05-19 13:30:00,87.0,60.5,30.06,SW,225,11.0,20.0,41,0.00,,---,0.00,VWS V14.01,2013-05-19 18:30:00,
2013-05-19 13:40:00,86.7,59.5,30.06,SSW,202,12.0,23.0,40,0.00,,---,0.00,VWS V14.01,2013-05-19 18:40:00,
2013-05-19 13:50:00,87.0,61.8,30.05,SW,225,13.0,24.0,43,0.00,,---,0.00,VWS V14.01,2013-05-19 18:50:00,
2013-05-19 14:00:00,87.2,61.3,30.05,SSW,202,12.0,25.0,42,0.00,,---,0.00,VWS V14.01,2013-05-19 19:00:00,
2013-05-19 14:10:00,87.2,60.7,30.05,SSW,202,12.0,25.0,41,0.00,,---,0.00,VWS V14.01,2013-05-19 19:10:00,
2013-05-19 14:20:00,87.2,60.7,30.04,South,180,13.0,23.0,41,0.00,,---,0.00,VWS V14.01,2013-05-19 19:20:00,
2013-05-19 14:30:00,87.6,60.3,30.03,SSW,202,11.0,25.0,40,0.00,,---,0.00,VWS V14.01,2013-05-19 19:30:00,
2013-05-19 14:40:00,88.0,62.0,30.03,SSW,202,12.0,22.0,42,0.00,,---,0.00,VWS V14.01,2013-05-19 19:40:00,
2013-05-19 14:50:00,88.2,61.5,30.03,South,180,11.0,23.0,41,0.00,,---,0.00,VWS V14.01,2013-05-19 19:50:00,
2013-05-19 15:00:00,88.2,61.5,30.03,South,180,12.0,24.0,41,0.00,,---,0.00,VWS V14.01,2013-05-19 20:00:00,
2013-05-19 15:10:00,88.4,60.3,30.03,South,180,14.0,25.0,39,0.00,,---,0.00,VWS V14.01,2013-05-19 20:10:00,
2013-05-19 15:20:00,88.2,60.8,30.02,SSW,202,11.0,22.0,40,0.00,,---,0.00,VWS V14.01,2013-05-19 20:20:00,
2013-05-19 15:30:00,88.8,60.7,30.01,SSW,202,11.0,26.0,39,0.00,,---,0.00,VWS V14.01,2013-05-19 20:30:00,
2013-05-19 15:40:00,88.8,59.9,30.01,South,180,10.0,19.0,38,0.00,,---,0.00,VWS V14.01,2013-05-19 20:40:00,
2013-05-19 15:50:00,88.4,59.6,30.01,SSW,202,12.0,23.0,38,0.00,,---,0.00,VWS V14.01,2013-05-19 20:50:00,
2013-05-19 16:00:00,88.4,59.6,30.00,SSW,202,12.0,29.0,38,0.00,,---,0.00,VWS V14.01,2013-05-19 21:00:00,
2013-05-19 16:10:00,88.0,58.5,30.00,SSW,202,15.0,26.0,37,0.00,,---,0.00,VWS V14.01,2013-05-19 21:10:00,
2013-05-19 16:20:00,88.0,59.2,30.00,South,180,14.0,27.0,38,0.00,,---,0.00,VWS V14.01,2013-05-19 21:20:00,
2013-05-19 16:30:00,88.2,60.1,29.99,South,180,13.0,25.0,39,0.00,,---,0.00,VWS V14.01,2013-05-19 21:30:00,
2013-05-19 16:40:00,88.0,60.7,29.99,SSW,202,13.0,24.0,40,0.00,,---,0.00,VWS V14.01,2013-05-19 21:40:00,
2013-05-19 16:50:00,87.8,61.2,29.99,South,180,13.0,29.0,41,0.00,,---,0.00,VWS V14.01,2013-05-19 21:50:00,
2013-05-19 17:00:00,87.8,59.8,29.98,South,180,12.0,23.0,39,0.00,,---,0.00,VWS V14.01,2013-05-19 22:00:00,
2013-05-19 17:10:00,87.4,60.1,29.98,South,180,14.0,27.0,40,0.00,,---,0.00,VWS V14.01,2013-05-19 22:10:00,
2013-05-19 17:20:00,87.2,60.7,29.97,SSW,202,12.0,22.0,41,0.00,,---,0.00,VWS V14.01,2013-05-19 22:20:00,
2013-05-19 17:30:00,86.7,60.2,29.98,SSW,202,16.0,30.0,41,0.00,,---,0.00,VWS V14.01,2013-05-19 22:30:00,
2013-05-19 17:40:00,86.3,59.8,29.98,SSW,202,14.0,29.0,41,0.00,,---,0.00,VWS V14.01,2013-05-19 22:40:00,
2013-05-19 17:50:00,86.3,59.8,29.99,South,180,12.0,32.0,41,0.00,,---,0.00,VWS V14.01,2013-05-19 22:50:00,
2013-05-19 18:00:00,85.5,60.5,29.99,South,180,13.0,25.0,43,0.00,,---,0.00,VWS V14.01,2013-05-19 23:00:00,
2013-05-19 18:10:00,85.1,60.1,29.99,SSW,202,13.0,33.0,43,0.00,,---,0.00,VWS V14.01,2013-05-19 23:10:00,
2013-05-19 18:20:00,84.1,60.5,29.98,South,180,13.0,26.0,45,0.00,,---,0.00,VWS V14.01,2013-05-19 23:20:00,
2013-05-19 18:30:00,83.6,61.3,29.98,SSW,202,11.0,28.0,47,0.00,,---,0.00,VWS V14.01,2013-05-19 23:30:00,
2013-05-19 18:40:00,83.2,61.5,29.98,SSW,202,11.0,22.0,48,0.00,,---,0.00,VWS V14.01,2013-05-19 23:40:00,
2013-05-19 18:50:00,82.8,61.7,29.99,SSW,202,9.0,22.0,49,0.00,,---,0.00,VWS V14.01,2013-05-19 23:50:00,
2013-05-19 19:00:00,82.6,62.7,30.00,SSW,202,8.0,21.0,51,0.00,,---,0.00,VWS V14.01,2013-05-20 00:00:00,
2013-05-19 19:10:00,82.2,62.3,30.00,SSW,202,8.0,20.0,51,0.00,,---,0.00,VWS V14.01,2013-05-20 00:10:00,
2013-05-19 19:20:00,82.2,62.3,30.00,SSW,202,10.0,21.0,51,0.00,,---,0.00,VWS V14.01,2013-05-20 00:20:00,
2013-05-19 19:30:00,82.0,62.7,30.02,SSW,202,10.0,17.0,52,0.00,,---,0.00,VWS V14.01,2013-05-20 00:30:00,
2013-05-19 19:40:00,81.8,63.0,30.02,SSW,202,8.0,15.0,53,0.00,,---,0.00,VWS V14.01,2013-05-20 00:40:00,
2013-05-19 19:50:00,81.4,63.7,30.02,South,180,8.0,16.0,55,0.00,,---,0.00,VWS V14.01,2013-05-20 00:50:00,
2013-05-19 20:00:00,81.1,63.9,30.03,SSW,202,7.0,15.0,56,0.00,,---,0.00,VWS V14.01,2013-05-20 01:00:00,
2013-05-19 20:10:00,80.7,64.1,30.03,SSW,202,7.0,17.0,57,0.00,,---,0.00,VWS V14.01,2013-05-20 01:10:00,
2013-05-19 20:20:00,80.5,64.4,30.02,SSW,202,7.0,15.0,58,0.00,,---,0.00,VWS V14.01,2013-05-20 01:20:00,
2013-05-19 20:30:00,80.1,64.5,30.03,SW,225,5.0,13.0,59,0.00,,---,0.00,VWS V14.01,2013-05-20 01:30:00,
2013-05-19 20:40:00,80.1,65.0,30.03,SSW,202,6.0,14.0,60,0.00,,---,0.00,VWS V14.01,2013-05-20 01:40:00,
2013-05-19 20:50:00,79.9,64.8,30.04,SSW,202,8.0,19.0,60,0.00,,---,0.00,VWS V14.01,2013-05-20 01:50:00,
2013-05-19 21:00:00,79.9,64.8,30.02,South,180,10.0,23.0,60,0.00,,---,0.00,VWS V14.01,2013-05-20 02:00:00,
2013-05-19 21:10:00,79.8,64.7,30.02,South,180,8.0,19.0,60,0.00,,---,0.00,VWS V14.01,2013-05-20 02:10:00,
2013-05-19 21:20:00,79.6,64.5,30.01,South,180,10.0,19.0,60,0.00,,---,0.00,VWS V14.01,2013-05-20 02:20:00,
2013-05-19 21:30:00,79.4,64.8,30.02,South,180,9.0,18.0,61,0.00,,---,0.00,VWS V14.01,2013-05-20 02:30:00,
2013-05-19 21:40:00,79.2,65.1,30.02,South,180,9.0,19.0,62,0.00,,---,0.00,VWS V14.01,2013-05-20 02:40:00,
2013-05-19 21:50:00,79.2,65.1,30.02,South,180,9.0,20.0,62,0.00,,---,0.00,VWS V14.01,2013-05-20 02:50:00,
2013-05-19 22:00:00,79.0,65.3,30.01,South,180,9.0,18.0,63,0.00,,---,0.00,VWS V14.01,2013-05-20 03:00:00,
2013-05-19 22:10:00,78.8,65.6,30.01,South,180,11.0,19.0,64,0.00,,---,0.00,VWS V14.01,2013-05-20 03:10:00,
2013-05-19 22:20:00,78.6,65.9,30.02,South,180,9.0,19.0,65,0.00,,---,0.00,VWS V14.01,2013-05-20 03:20:00,
2013-05-19 22:30:00,79.4,64.8,30.02,South,180,9.0,18.0,61,0.00,,---,0.00,VWS V14.01,2013-05-20 03:30:00,
2013-05-19 22:40:00,78.5,65.8,30.00,SW,215,5.0,29.0,65,0.00,,---,0.00,VWS V14.01,2013-05-20 03:40:00,
2013-05-19 22:44:00,78.5,66.2,30.01,SSW,194,11.0,20.0,66,0.00,,---,0.00,VWS V14.01,2013-05-20 03:44:00,
2013-05-19 22:49:00,78.5,66.2,30.01,SSW,197,13.0,20.0,66,0.00,,---,0.00,VWS V14.01,2013-05-20 03:49:00,
2013-05-19 22:50:00,78.5,66.2,30.01,South,182,9.0,20.0,66,0.00,,---,0.00,VWS V14.01,2013-05-20 03:50:00,
2013-05-19 22:54:00,78.3,66.0,30.01,SSW,198,25.0,25.0,66,0.00,,---,0.00,VWS V14.01,2013-05-20 03:54:00,
2013-05-19 22:59:00,78.3,66.0,30.02,South,179,9.0,25.0,66,0.00,,---,0.00,VWS V14.01,2013-05-20 03:59:00,
2013-05-19 23:00:00,78.3,66.0,30.02,SSW,203,13.0,25.0,66,0.00,,---,0.00,VWS V14.01,2013-05-20 04:00:00,
2013-05-19 23:01:00,78.3,66.0,30.02,SSE,147,7.0,13.0,66,0.00,,---,0.00,VWS V14.01,2013-05-20 04:01:00,
2013-05-19 23:06:00,78.3,66.0,30.02,SW,234,6.0,19.0,66,0.00,,---,0.00,VWS V14.01,2013-05-20 04:06:00,
2013-05-19 23:10:00,78.1,65.8,30.02,SW,229,7.0,19.0,66,0.00,,---,0.00,VWS V14.01,2013-05-20 04:10:00,
2013-05-19 23:11:00,78.1,65.8,30.02,SW,218,4.0,14.0,66,0.00,,---,0.00,VWS V14.01,2013-05-20 04:11:00,
2013-05-19 23:16:00,78.1,65.8,30.03,SW,235,10.0,14.0,66,0.00,,---,0.00,VWS V14.01,2013-05-20 04:16:00,
2013-05-19 23:20:00,78.1,65.8,30.03,SSW,204,9.0,18.0,66,0.00,,---,0.00,VWS V14.01,2013-05-20 04:20:00,
2013-05-19 23:21:00,78.1,65.8,30.03,SW,223,5.0,15.0,66,0.00,,---,0.00,VWS V14.01,2013-05-20 04:21:00,
2013-05-19 23:26:00,77.9,65.6,30.03,SSW,209,4.0,18.0,66,0.00,,---,0.00,VWS V14.01,2013-05-20 04:26:00,
2013-05-19 23:30:00,77.9,65.6,30.03,SW,223,9.0,18.0,66,0.00,,---,0.00,VWS V14.01,2013-05-20 04:30:00,
2013-05-19 23:31:00,77.9,65.6,30.03,SW,234,9.0,11.0,66,0.00,,---,0.00,VWS V14.01,2013-05-20 04:31:00,
2013-05-19 23:36:00,77.7,65.4,30.03,SW,226,14.0,16.0,66,0.00,,---,0.00,VWS V14.01,2013-05-20 04:36:00,
2013-05-19 23:40:00,77.7,65.4,30.03,SW,222,10.0,17.0,66,0.00,,---,0.00,VWS V14.01,2013-05-20 04:40:00,
2013-05-19 23:41:00,77.7,65.4,30.03,SW,223,4.0,20.0,66,0.00,,---,0.00,VWS V14.01,2013-05-20 04:41:00,
2013-05-19 23:46:00,77.7,65.4,30.03,SSW,198,4.0,20.0,66,0.00,,---,0.00,VWS V14.01,2013-05-20 04:46:00,
2013-05-19 23:50:00,77.6,65.8,30.03,SW,217,7.0,20.0,67,0.00,,---,0.00,VWS V14.01,2013-05-20 04:50:00,
2013-05-19 23:51:00,77.6,65.8,30.03,SSW,203,19.0,21.0,67,0.00,,---,0.00,VWS V14.01,2013-05-20 04:51:00,
2013-05-19 23:56:00,77.6,65.8,30.03,SSW,194,16.0,23.0,67,0.00,,---,0.00,VWS V14.01,2013-05-20 04:56:00,